Little America, Wyoming
Current Conditions -  °F | °C
As of 5:15 AM on Friday 24 Oct 2014 (Local Time) from KFBR Reporting Station
Clear Clear  
Wind Chill: 39°   Ceiling: Unl
Heat Index: 43°   Visibility: NA
Dew Point: 23°   Wind: 8mph
Humidity: 45%   Direction: 220°SW
Pressure: 30.24"   Gusts: NA
Location:  41.54°N, 109.86°W
Report Text: KFBR 241115Z AUTO 22007KT CLR 06/M05 A3024 RMK AO2 T00631048 PWINO
Loading
Personal Weather Stations






























Interactive Weather Map
Tropical Storm Tracking
New forecast layout! Learn more

10-Day Weather Forecast

Advertisements
Track Severe Weather on mobile